Time;durP1;ratioP1;P1;durP2;ratioP2;P2;SDS_P1;SDS_P2;PMS_P1;PMS_P2;Temp;Humidity;BMP_temperature;BMP_pressure;BME280_temperature;BME280_humidity;BME280_pressure;Samples;Min_cycle;Max_cycle;Signal;HPM_P1;HPM_P2
2023/10/28 00:00:29;;;;;;;18.50;11.90;;;13.90;80.90;;;;;;4919730;29;20035;-68
2023/10/28 00:02:56;;;;;;;21.20;13.15;;;13.90;80.90;;;;;;4919185;29;20036;-68
2023/10/28 00:05:23;;;;;;;21.80;13.18;;;13.90;81.10;;;;;;4918581;29;20417;-68
2023/10/28 00:07:49;;;;;;;22.67;13.43;;;13.90;81.20;;;;;;4918785;29;20103;-69
2023/10/28 00:10:21;;;;;;;25.13;14.82;;;13.90;81.30;;;;;;4918884;29;20378;-69
2023/10/28 00:12:50;;;;;;;20.45;13.20;;;13.90;81.30;;;;;;4919248;29;20044;-68
2023/10/28 00:15:18;;;;;;;25.80;15.07;;;13.90;81.60;;;;;;4919087;29;20083;-68
2023/10/28 00:17:47;;;;;;;20.92;13.65;;;13.90;81.60;;;;;;4919266;29;20033;-69
2023/10/28 00:20:17;;;;;;;19.55;12.00;;;13.90;81.50;;;;;;4919012;29;20036;-68
2023/10/28 00:22:47;;;;;;;20.52;13.18;;;13.90;81.60;;;;;;4918968;29;20043;-68
2023/10/28 00:25:15;;;;;;;18.45;11.88;;;13.90;81.80;;;;;;4919581;29;20064;-69
2023/10/28 00:27:42;;;;;;;22.63;14.70;;;13.90;81.70;;;;;;4919476;29;20047;-68
2023/10/28 00:30:11;;;;;;;18.55;12.32;;;13.90;81.80;;;;;;4918921;29;20345;-68
2023/10/28 00:32:37;;;;;;;18.58;12.18;;;13.90;82.30;;;;;;4918766;29;20028;-69
2023/10/28 00:35:11;;;;;;;22.17;13.18;;;13.90;82.10;;;;;;4918003;29;20028;-69
2023/10/28 00:37:39;;;;;;;21.00;13.27;;;13.90;81.90;;;;;;4918103;29;20397;-69
2023/10/28 00:40:06;;;;;;;22.80;13.25;;;13.80;82.00;;;;;;4919426;29;20107;-69
2023/10/28 00:42:36;;;;;;;23.52;15.10;;;13.80;81.90;;;;;;4918819;29;20365;-69
2023/10/28 00:45:13;;;;;;;22.33;13.45;;;13.80;81.80;;;;;;4918700;29;20063;-69
2023/10/28 00:47:42;;;;;;;21.45;13.32;;;13.80;81.80;;;;;;4919117;29;20028;-69
2023/10/28 00:50:11;;;;;;;21.00;14.38;;;13.70;82.00;;;;;;4919287;29;20020;-69
2023/10/28 00:52:55;;;;;;;25.50;15.35;;;13.70;82.10;;;;;;4918876;29;20028;-68
2023/10/28 00:55:22;;;;;;;24.52;14.55;;;13.70;82.50;;;;;;4917825;29;20357;-69
2023/10/28 00:57:49;;;;;;;25.25;14.20;;;13.70;82.80;;;;;;4918673;29;20056;-69
2023/10/28 01:00:15;;;;;;;22.25;13.48;;;13.80;82.60;;;;;;4918720;29;20021;-68
2023/10/28 01:02:43;;;;;;;24.13;14.30;;;13.70;82.60;;;;;;4917708;29;20027;-69
2023/10/28 01:05:11;;;;;;;20.02;12.23;;;13.80;82.30;;;;;;4918899;29;20047;-69
2023/10/28 01:07:42;;;;;;;21.70;13.68;;;13.80;82.20;;;;;;4918835;29;20043;-69
2023/10/28 01:10:12;;;;;;;18.23;12.13;;;13.80;82.10;;;;;;4919186;29;20522;-68
2023/10/28 01:12:39;;;;;;;20.33;13.45;;;13.80;82.30;;;;;;4918429;29;20124;-69
2023/10/28 01:15:05;;;;;;;19.80;12.63;;;13.80;82.20;;;;;;4919084;29;20032;-69
2023/10/28 01:17:32;;;;;;;19.60;12.93;;;13.80;82.20;;;;;;4919103;29;20028;-68
2023/10/28 01:19:58;;;;;;;23.85;14.88;;;13.80;82.30;;;;;;4919954;29;20020;-68
2023/10/28 01:22:24;;;;;;;22.90;14.30;;;13.80;82.40;;;;;;4922178;29;20035;-67
2023/10/28 01:24:51;;;;;;;24.55;15.30;;;13.90;82.20;;;;;;4921819;29;20034;-67
2023/10/28 01:27:17;;;;;;;25.33;15.43;;;13.80;82.20;;;;;;4922036;29;20028;-67
2023/10/28 01:29:43;;;;;;;20.80;13.73;;;13.90;82.60;;;;;;4921779;29;20024;-67
2023/10/28 01:32:09;;;;;;;24.77;14.18;;;13.90;82.50;;;;;;4922209;29;20035;-69
2023/10/28 01:34:51;;;;;;;24.58;15.43;;;13.80;82.40;;;;;;4922150;29;20029;-67
2023/10/28 01:37:18;;;;;;;27.25;14.00;;;13.70;82.40;;;;;;4921941;29;20024;-67
2023/10/28 01:39:50;;;;;;;22.65;13.23;;;13.80;82.40;;;;;;4921869;29;20024;-67
2023/10/28 01:42:16;;;;;;;24.58;14.45;;;13.80;82.40;;;;;;4921839;29;20107;-67
2023/10/28 01:44:42;;;;;;;20.67;13.23;;;13.80;82.40;;;;;;4921321;29;20060;-68
2023/10/28 01:47:11;;;;;;;18.98;12.30;;;13.80;82.30;;;;;;4921718;29;20059;-68
2023/10/28 01:49:38;;;;;;;20.80;13.18;;;13.80;82.20;;;;;;4921431;29;20462;-67
2023/10/28 01:52:10;;;;;;;22.98;12.90;;;13.80;82.40;;;;;;4921217;29;20501;-67
2023/10/28 01:54:37;;;;;;;22.27;12.98;;;13.80;82.20;;;;;;4921397;29;20104;-67
2023/10/28 01:57:05;;;;;;;22.55;14.15;;;13.80;82.30;;;;;;4921874;29;20043;-67
2023/10/28 01:59:37;;;;;;;22.67;13.77;;;13.80;82.50;;;;;;4921498;29;20052;-66
2023/10/28 02:02:04;;;;;;;25.30;14.65;;;13.70;82.50;;;;;;4920661;29;20044;-68
2023/10/28 02:04:31;;;;;;;20.45;12.70;;;13.70;82.60;;;;;;4921147;29;20032;-69
2023/10/28 02:07:00;;;;;;;25.38;15.45;;;13.70;82.50;;;;;;4921403;29;20346;-67
2023/10/28 02:09:28;;;;;;;22.33;13.65;;;13.70;82.70;;;;;;4921375;29;20036;-66
2023/10/28 02:11:54;;;;;;;19.85;12.27;;;13.70;82.50;;;;;;4921196;29;20349;-66
2023/10/28 02:14:22;;;;;;;21.08;12.75;;;13.70;82.50;;;;;;4921180;29;20032;-66
2023/10/28 02:16:54;;;;;;;19.95;12.27;;;13.60;82.60;;;;;;4921451;29;20036;-66
2023/10/28 02:19:20;;;;;;;20.05;12.20;;;13.60;82.60;;;;;;4921191;29;20029;-69
2023/10/28 02:21:48;;;;;;;21.10;12.20;;;13.60;82.60;;;;;;4920813;29;20465;-68
2023/10/28 02:24:14;;;;;;;18.58;12.35;;;13.60;82.60;;;;;;4920808;29;20059;-68
2023/10/28 02:26:41;;;;;;;17.27;11.82;;;13.60;82.60;;;;;;4921068;29;20129;-68
2023/10/28 02:29:10;;;;;;;17.63;11.98;;;13.60;82.70;;;;;;4920799;29;20087;-69
2023/10/28 02:31:42;;;;;;;18.70;11.65;;;13.60;82.60;;;;;;4919950;29;20080;-69
2023/10/28 02:34:08;;;;;;;19.52;11.73;;;13.60;82.60;;;;;;4920567;29;20509;-69
2023/10/28 02:36:36;;;;;;;17.38;11.85;;;13.50;82.40;;;;;;4919663;29;20419;-68
2023/10/28 02:39:02;;;;;;;21.23;11.52;;;13.50;82.40;;;;;;4921157;29;20052;-68
2023/10/28 02:41:28;;;;;;;17.73;11.25;;;13.50;82.30;;;;;;4921102;29;20036;-68
2023/10/28 02:43:54;;;;;;;20.13;12.15;;;13.40;82.30;;;;;;4920010;29;20469;-69
2023/10/28 02:46:23;;;;;;;19.95;12.05;;;13.40;82.30;;;;;;4919572;29;20036;-69
2023/10/28 02:48:49;;;;;;;21.80;12.73;;;13.40;82.40;;;;;;4919527;29;20080;-68
2023/10/28 02:51:15;;;;;;;20.73;11.43;;;13.40;82.60;;;;;;4919470;29;20464;-68
2023/10/28 02:53:41;;;;;;;19.20;11.80;;;13.40;82.70;;;;;;4919747;29;20048;-68
2023/10/28 02:56:08;;;;;;;20.35;12.50;;;13.40;82.80;;;;;;4919694;29;20357;-68
2023/10/28 02:58:35;;;;;;;19.27;11.35;;;13.40;82.80;;;;;;4918412;29;20115;-68
2023/10/28 03:01:12;;;;;;;19.27;11.27;;;13.40;82.80;;;;;;4918413;29;20020;-68
2023/10/28 03:03:41;;;;;;;15.85;10.50;;;13.50;82.70;;;;;;4918281;29;20024;-68
2023/10/28 03:06:07;;;;;;;15.55;10.68;;;13.40;82.60;;;;;;4919255;29;20055;-68
2023/10/28 03:08:33;;;;;;;16.55;10.63;;;13.40;82.60;;;;;;4919168;29;20079;-68
2023/10/28 03:11:00;;;;;;;15.15;9.90;;;13.40;82.60;;;;;;4918536;29;20024;-68
2023/10/28 03:13:26;;;;;;;17.20;10.50;;;13.40;82.60;;;;;;4918161;29;20048;-68
2023/10/28 03:15:51;;;;;;;14.15;9.27;;;13.40;82.50;;;;;;4918105;29;20074;-68
2023/10/28 03:18:18;;;;;;;12.80;8.48;;;13.40;82.50;;;;;;4919082;29;20462;-68
2023/10/28 03:20:44;;;;;;;12.52;8.63;;;13.40;82.50;;;;;;4919344;29;20088;-68
2023/10/28 03:23:10;;;;;;;15.25;10.18;;;13.40;82.50;;;;;;4919165;29;20100;-68
2023/10/28 03:25:37;;;;;;;14.85;9.75;;;13.40;82.50;;;;;;4919486;29;20386;-68
2023/10/28 03:28:04;;;;;;;16.02;9.63;;;13.30;82.50;;;;;;4919176;29;20055;-68
2023/10/28 03:30:31;;;;;;;15.85;9.50;;;13.30;82.40;;;;;;4919143;29;20047;-68
2023/10/28 03:32:58;;;;;;;15.88;9.32;;;13.30;82.30;;;;;;4918691;29;20035;-68
2023/10/28 03:35:24;;;;;;;14.80;9.65;;;13.20;82.30;;;;;;4919138;29;20031;-68
2023/10/28 03:37:50;;;;;;;15.98;10.20;;;13.20;82.30;;;;;;4918825;29;20024;-68
2023/10/28 03:40:16;;;;;;;14.45;9.20;;;13.10;82.30;;;;;;4919065;29;20043;-68
2023/10/28 03:42:42;;;;;;;14.60;9.43;;;13.10;82.40;;;;;;4918494;29;20466;-68
2023/10/28 03:45:08;;;;;;;14.05;9.63;;;13.10;82.50;;;;;;4876148;29;1289958;-68
2023/10/28 03:47:35;;;;;;;16.75;10.20;;;13.10;82.50;;;;;;4919961;29;20039;-68
2023/10/28 03:50:02;;;;;;;18.70;11.85;;;13.00;82.50;;;;;;4919307;29;20043;-68
2023/10/28 03:52:28;;;;;;;19.65;10.85;;;13.00;82.50;;;;;;4919301;29;20036;-68
2023/10/28 03:54:54;;;;;;;15.48;10.13;;;13.00;82.50;;;;;;4919496;29;20064;-68
2023/10/28 03:57:21;;;;;;;18.80;12.20;;;13.00;82.50;;;;;;4919303;29;20457;-68
2023/10/28 03:59:49;;;;;;;16.73;10.18;;;13.00;82.60;;;;;;4919484;29;20106;-68
2023/10/28 04:02:16;;;;;;;18.48;11.07;;;13.00;82.60;;;;;;4919472;29;20036;-68
2023/10/28 04:04:42;;;;;;;20.90;12.30;;;13.00;82.50;;;;;;4919125;29;20040;-68
2023/10/28 04:07:08;;;;;;;15.40;10.07;;;13.00;82.50;;;;;;4918546;29;20182;-68
2023/10/28 04:09:35;;;;;;;14.80;9.18;;;13.00;82.50;;;;;;4919123;29;20028;-68
2023/10/28 04:12:01;;;;;;;15.63;10.23;;;12.90;82.50;;;;;;4919058;29;20024;-68
2023/10/28 04:14:26;;;;;;;16.48;9.85;;;13.00;82.50;;;;;;4919025;29;20024;-68
2023/10/28 04:16:52;;;;;;;13.95;9.00;;;12.90;82.50;;;;;;4919595;29;20028;-68
2023/10/28 04:19:18;;;;;;;14.02;8.40;;;12.90;82.50;;;;;;4918136;29;20061;-68
2023/10/28 04:21:44;;;;;;;12.10;8.35;;;12.90;82.50;;;;;;4918991;29;20035;-68
2023/10/28 04:24:10;;;;;;;12.43;8.48;;;12.90;82.40;;;;;;4918980;29;20028;-68
2023/10/28 04:26:36;;;;;;;12.57;8.20;;;12.90;82.40;;;;;;4918048;29;20524;-68
2023/10/28 04:29:03;;;;;;;13.68;8.55;;;12.90;82.40;;;;;;4919214;29;20025;-68
2023/10/28 04:31:30;;;;;;;13.07;8.35;;;12.90;82.40;;;;;;4917950;29;20036;-68
2023/10/28 04:34:00;;;;;;;11.95;7.55;;;12.80;82.40;;;;;;4918890;29;20035;-68
2023/10/28 04:36:26;;;;;;;13.82;7.70;;;12.80;82.50;;;;;;4918922;29;20111;-68
2023/10/28 04:38:52;;;;;;;14.02;7.70;;;12.80;82.50;;;;;;4919201;29;20103;-68
2023/10/28 04:41:18;;;;;;;13.60;7.85;;;12.80;82.50;;;;;;4918891;29;20088;-68
2023/10/28 04:43:44;;;;;;;12.05;7.55;;;12.90;82.60;;;;;;5190201;23;20083;-62
2023/10/28 04:46:10;;;;;;;11.13;6.75;;;12.80;82.50;;;;;;4938004;29;20074;-63
2023/10/28 04:48:38;;;;;;;11.13;7.00;;;12.80;82.50;;;;;;4937746;29;20472;-62
2023/10/28 04:51:05;;;;;;;12.35;6.93;;;12.80;82.40;;;;;;4937105;29;20051;-63
2023/10/28 04:53:31;;;;;;;11.10;6.50;;;12.80;82.40;;;;;;4927809;29;20446;-62
2023/10/28 04:55:58;;;;;;;11.65;6.60;;;12.80;82.40;;;;;;4920544;29;20032;-62
2023/10/28 04:58:24;;;;;;;9.82;5.90;;;12.80;82.40;;;;;;4922366;29;20020;-62
2023/10/28 05:00:51;;;;;;;9.50;6.10;;;12.80;82.30;;;;;;4922487;29;20059;-62
2023/10/28 05:03:18;;;;;;;8.75;5.63;;;12.70;82.30;;;;;;4922199;29;20036;-62
2023/10/28 05:05:44;;;;;;;9.77;5.93;;;12.80;82.30;;;;;;4922216;29;20084;-62
2023/10/28 05:08:09;;;;;;;9.32;5.53;;;12.70;82.30;;;;;;4922660;29;20028;-63
2023/10/28 05:10:35;;;;;;;11.18;6.07;;;12.70;82.30;;;;;;4921507;29;20464;-62
2023/10/28 05:13:03;;;;;;;9.77;5.85;;;12.70;82.30;;;;;;4921940;29;20496;-63
2023/10/28 05:15:29;;;;;;;8.48;5.50;;;12.70;82.20;;;;;;4921097;29;20028;-62
2023/10/28 05:17:55;;;;;;;8.80;5.63;;;12.70;82.20;;;;;;4921037;29;20044;-62
2023/10/28 05:20:22;;;;;;;12.57;6.55;;;12.70;82.20;;;;;;4922208;29;20024;-63
2023/10/28 05:22:48;;;;;;;14.90;8.57;;;12.60;82.20;;;;;;4922361;29;20036;-63
2023/10/28 05:25:14;;;;;;;12.65;7.15;;;12.70;82.20;;;;;;4922148;29;20024;-63
2023/10/28 05:27:40;;;;;;;10.07;6.10;;;12.60;82.10;;;;;;4920853;29;20036;-62
2023/10/28 05:30:06;;;;;;;12.65;6.80;;;12.60;82.10;;;;;;4922033;29;20487;-62
2023/10/28 05:32:32;;;;;;;10.48;6.25;;;12.70;82.10;;;;;;4920660;29;20111;-63
2023/10/28 05:34:58;;;;;;;9.73;6.22;;;12.60;81.90;;;;;;4921952;29;20120;-62
2023/10/28 05:37:26;;;;;;;10.60;6.32;;;12.60;82.00;;;;;;4920786;29;20039;-62
2023/10/28 05:39:52;;;;;;;10.32;6.40;;;12.60;81.90;;;;;;4921594;29;20362;-62
2023/10/28 05:44:59;;;;;;;13.45;6.60;;;12.50;82.00;;;;;;5125563;23;20078;-68
2023/10/28 05:47:25;;;;;;;10.23;5.97;;;12.50;82.00;;;;;;4940490;29;20071;-68
2023/10/28 05:49:51;;;;;;;10.82;5.82;;;12.50;82.00;;;;;;4940456;29;20031;-67
2023/10/28 05:52:20;;;;;;;9.15;5.35;;;12.50;82.10;;;;;;4940873;29;20411;-67
2023/10/28 05:54:46;;;;;;;9.07;5.70;;;12.40;82.00;;;;;;4925894;29;20449;-67
2023/10/28 05:57:12;;;;;;;9.55;5.55;;;12.40;81.90;;;;;;4921321;29;20032;-68
2023/10/28 05:59:39;;;;;;;9.20;5.57;;;12.40;81.90;;;;;;4921342;29;20056;-68
2023/10/28 06:02:05;;;;;;;9.65;5.60;;;12.40;81.90;;;;;;4921556;29;20143;-68
2023/10/28 06:07:03;;;;;;;11.27;5.65;;;12.40;82.10;;;;;;5200578;23;20048;-66
2023/10/28 06:09:29;;;;;;;9.25;5.60;;;12.40;82.20;;;;;;4940136;29;20027;-64
2023/10/28 06:11:56;;;;;;;8.25;5.13;;;12.50;82.10;;;;;;4940048;29;20032;-63
2023/10/28 06:14:22;;;;;;;8.45;5.10;;;12.50;82.00;;;;;;4940256;29;20015;-64
2023/10/28 06:16:49;;;;;;;11.18;4.93;;;12.50;82.00;;;;;;4929259;29;20512;-63
2023/10/28 06:19:15;;;;;;;8.68;4.80;;;12.60;82.00;;;;;;4920946;29;20029;-64
2023/10/28 06:21:41;;;;;;;8.10;4.65;;;12.60;82.10;;;;;;4921202;29;20111;-65
2023/10/28 06:24:08;;;;;;;7.60;4.50;;;12.70;82.10;;;;;;4920853;29;20410;-64
2023/10/28 06:26:34;;;;;;;6.53;4.55;;;12.80;82.10;;;;;;4920923;29;20060;-67
2023/10/28 06:29:02;;;;;;;7.78;4.60;;;12.80;82.30;;;;;;4921219;29;20031;-67
2023/10/28 06:31:36;;;;;;;7.85;4.68;;;12.90;82.30;;;;;;4920551;29;20036;-66
2023/10/28 06:34:04;;;;;;;14.30;7.80;;;13.00;82.20;;;;;;4920652;29;20028;-67
2023/10/28 06:36:30;;;;;;;18.10;9.07;;;13.00;82.20;;;;;;4920530;29;20043;-67
2023/10/28 06:38:57;;;;;;;14.75;8.10;;;13.10;82.10;;;;;;4920573;29;20038;-68
2023/10/28 06:41:23;;;;;;;10.15;5.00;;;13.20;82.20;;;;;;5229076;23;20075;-69
2023/10/28 06:43:49;;;;;;;7.72;4.68;;;13.40;82.20;;;;;;4939737;29;20024;-69
2023/10/28 06:46:16;;;;;;;7.15;4.13;;;13.50;82.20;;;;;;4939430;29;20165;-69
2023/10/28 06:48:42;;;;;;;8.38;4.60;;;13.60;82.20;;;;;;4939397;29;20035;-69
2023/10/28 06:51:08;;;;;;;9.05;4.30;;;13.80;82.20;;;;;;4929762;29;20040;-69
2023/10/28 06:53:40;;;;;;;8.07;4.82;;;14.00;82.20;;;;;;4920831;29;20489;-69
2023/10/28 06:56:07;;;;;;;7.68;4.43;;;14.10;81.90;;;;;;4920236;29;20100;-69
2023/10/28 06:58:33;;;;;;;6.05;4.20;;;14.20;81.70;;;;;;4919577;29;20025;-69
2023/10/28 07:00:59;;;;;;;15.40;8.00;;;14.30;81.60;;;;;;4920574;29;20111;-69
2023/10/28 07:03:26;;;;;;;10.60;6.15;;;14.40;81.50;;;;;;4920641;29;20052;-69
2023/10/28 07:06:14;;;;;;;10.07;5.72;;;14.40;81.60;;;;;;4920381;29;20034;-69
2023/10/28 07:08:40;;;;;;;13.75;6.85;;;14.60;81.50;;;;;;4920082;29;20028;-69
2023/10/28 07:11:06;;;;;;;15.45;6.93;;;14.90;81.40;;;;;;4920051;29;20038;-69
2023/10/28 07:13:32;;;;;;;10.25;5.45;;;15.00;81.10;;;;;;4920508;29;20020;-69
2023/10/28 07:16:04;;;;;;;12.30;6.05;;;15.20;81.00;;;;;;4920227;29;20163;-69
2023/10/28 07:18:31;;;;;;;8.18;4.70;;;15.40;80.70;;;;;;4919426;29;20028;-69
2023/10/28 07:20:58;;;;;;;6.68;4.40;;;15.60;80.60;;;;;;4920207;29;20043;-69
2023/10/28 07:23:27;;;;;;;6.38;4.22;;;15.80;80.20;;;;;;4919771;29;20100;-69
2023/10/28 07:25:58;;;;;;;8.63;4.40;;;16.00;79.90;;;;;;4919680;29;20056;-69
2023/10/28 07:28:24;;;;;;;8.35;3.72;;;16.20;79.50;;;;;;4919660;29;20462;-70
2023/10/28 07:30:51;;;;;;;6.70;4.05;;;16.30;79.20;;;;;;4919840;29;20020;-69
2023/10/28 07:33:23;;;;;;;13.18;5.18;;;16.40;78.90;;;;;;4919606;29;20438;-69
2023/10/28 07:35:52;;;;;;;29.23;5.78;;;16.60;78.80;;;;;;4919592;29;20036;-69
2023/10/28 07:38:19;;;;;;;35.65;6.47;;;16.70;78.40;;;;;;4918961;29;20020;-69
2023/10/28 07:40:46;;;;;;;8.20;4.50;;;16.90;78.20;;;;;;4919196;29;20040;-69
2023/10/28 07:43:18;;;;;;;10.02;5.00;;;16.90;77.80;;;;;;4919200;29;20039;-69
2023/10/28 07:45:47;;;;;;;5.55;3.92;;;17.00;77.30;;;;;;4919413;29;20036;-69
2023/10/28 07:48:14;;;;;;;7.47;4.15;;;17.10;77.10;;;;;;4918472;29;20441;-69
2023/10/28 07:50:43;;;;;;;8.00;3.90;;;17.20;76.80;;;;;;4919712;29;20032;-69
2023/10/28 07:53:11;;;;;;;7.55;4.35;;;17.20;76.80;;;;;;4919835;29;20063;-69
2023/10/28 07:55:38;;;;;;;7.78;4.32;;;17.30;76.80;;;;;;4919274;29;20366;-69
2023/10/28 07:58:05;;;;;;;7.80;4.43;;;17.40;77.00;;;;;;4919314;29;20080;-70
2023/10/28 08:00:36;;;;;;;7.55;4.50;;;17.40;76.90;;;;;;4919470;29;20029;-69
2023/10/28 08:03:05;;;;;;;8.80;5.10;;;17.50;77.00;;;;;;4919437;29;20032;-69
2023/10/28 08:05:38;;;;;;;9.05;4.97;;;17.60;76.70;;;;;;4919720;29;20040;-69
2023/10/28 08:08:09;;;;;;;8.43;4.90;;;17.70;76.70;;;;;;4919179;29;20051;-69
2023/10/28 08:10:40;;;;;;;8.18;5.32;;;17.80;76.60;;;;;;4919003;29;20039;-69
2023/10/28 08:13:06;;;;;;;8.20;5.10;;;17.80;76.30;;;;;;4919039;29;20087;-69
2023/10/28 08:15:32;;;;;;;9.20;4.40;;;17.90;75.90;;;;;;4919158;29;20398;-69
2023/10/28 08:17:58;;;;;;;8.05;4.60;;;17.90;75.80;;;;;;4919311;29;20054;-69
2023/10/28 08:20:24;;;;;;;10.93;5.60;;;18.00;75.90;;;;;;4919240;29;20091;-70
2023/10/28 08:22:50;;;;;;;7.88;5.20;;;18.00;75.90;;;;;;4918104;29;20357;-69
2023/10/28 08:25:16;;;;;;;7.30;5.05;;;18.10;75.80;;;;;;4919084;29;20476;-69
2023/10/28 08:27:44;;;;;;;7.25;5.38;;;18.10;75.80;;;;;;4919567;29;20103;-69
2023/10/28 08:30:17;;;;;;;8.85;5.72;;;18.10;75.70;;;;;;4920484;29;20047;-69
2023/10/28 08:32:46;;;;;;;9.57;5.60;;;18.00;75.70;;;;;;5183069;23;20066;-70
2023/10/28 08:35:27;;;;;;;7.97;5.75;;;18.10;75.80;;;;;;4922841;29;20028;-70
2023/10/28 08:37:55;;;;;;;9.50;5.60;;;18.10;75.80;;;;;;4922798;29;20036;-70
2023/10/28 08:40:21;;;;;;;10.95;6.93;;;18.20;75.80;;;;;;4922785;29;20103;-70
2023/10/28 08:42:48;;;;;;;10.05;6.10;;;18.20;75.70;;;;;;4922664;29;20042;-70
2023/10/28 08:45:21;;;;;;;7.63;5.53;;;18.30;75.70;;;;;;5166838;23;20111;-69
2023/10/28 08:47:50;;;;;;;10.27;5.50;;;18.40;74.90;;;;;;4922584;29;20488;-69
2023/10/28 08:50:17;;;;;;;7.82;5.25;;;18.40;74.70;;;;;;4923142;29;20020;-69
2023/10/28 08:53:00;;;;;;;9.18;5.80;;;18.50;74.60;;;;;;4922488;29;20036;-69
2023/10/28 08:55:28;;;;;;;8.43;5.53;;;18.60;74.80;;;;;;4922660;29;20104;-69
2023/10/28 08:57:55;;;;;;;8.82;5.47;;;18.60;75.10;;;;;;4922965;29;20024;-69
2023/10/28 09:00:23;;;;;;;8.00;5.00;;;18.70;74.70;;;;;;4921400;29;20024;-69
2023/10/28 09:02:51;;;;;;;7.32;4.93;;;18.80;74.50;;;;;;4921722;29;20044;-69
2023/10/28 09:05:20;;;;;;;8.13;5.00;;;18.80;73.80;;;;;;4921424;29;20024;-69
2023/10/28 09:07:47;;;;;;;7.57;5.18;;;18.90;73.70;;;;;;4922214;29;20119;-69
2023/10/28 09:10:13;;;;;;;9.40;4.88;;;18.90;73.20;;;;;;4922770;29;20425;-69
2023/10/28 09:12:40;;;;;;;7.15;4.70;;;19.00;73.10;;;;;;4922127;29;20032;-69
2023/10/28 09:15:11;;;;;;;6.25;4.60;;;19.10;72.70;;;;;;4921919;29;20032;-69
2023/10/28 09:17:39;;;;;;;7.18;4.32;;;19.10;72.50;;;;;;4922861;29;20036;-69
2023/10/28 09:20:12;;;;;;;7.82;4.88;;;19.20;72.50;;;;;;4922819;29;20076;-69
2023/10/28 09:22:43;;;;;;;7.00;4.38;;;19.20;72.30;;;;;;4922071;29;20369;-69
2023/10/28 09:25:10;;;;;;;6.85;4.35;;;19.20;72.40;;;;;;4921985;29;20028;-69
2023/10/28 09:27:37;;;;;;;8.50;4.20;;;19.30;72.30;;;;;;4921953;29;20365;-69
2023/10/28 09:30:07;;;;;;;6.15;4.53;;;19.40;72.30;;;;;;4922132;29;20029;-69
2023/10/28 09:32:35;;;;;;;7.95;4.53;;;19.40;72.30;;;;;;4921746;29;20039;-69
2023/10/28 09:35:06;;;;;;;9.50;4.18;;;19.40;72.10;;;;;;4920872;29;20027;-69
2023/10/28 09:37:36;;;;;;;8.13;4.10;;;19.40;71.60;;;;;;4922239;29;20505;-69
2023/10/28 09:40:05;;;;;;;6.78;3.90;;;19.40;71.70;;;;;;4921499;29;20032;-68
2023/10/28 09:42:32;;;;;;;7.40;4.47;;;19.50;71.70;;;;;;4921887;29;20036;-69
2023/10/28 09:45:06;;;;;;;9.30;4.35;;;19.50;71.30;;;;;;4920462;29;20048;-69
2023/10/28 09:47:56;;;;;;;10.27;4.05;;;19.50;71.50;;;;;;4921505;29;20036;-69
2023/10/28 09:50:39;;;;;;;7.65;3.97;;;19.60;70.60;;;;;;4921516;29;20028;-69
2023/10/28 09:53:06;;;;;;;;;;;19.60;70.80;;;;;;4921263;29;20071;-69
2023/10/28 09:55:35;;;;;;;7.18;4.50;;;19.60;68.20;;;;;;4921646;29;19907;-69
2023/10/28 09:58:08;;;;;;;7.20;4.22;;;19.60;69.80;;;;;;4921385;29;20107;-69
2023/10/28 10:00:37;;;;;;;9.75;4.57;;;19.70;70.40;;;;;;4920375;29;20024;-69
2023/10/28 10:03:10;;;;;;;11.20;4.75;;;19.70;70.60;;;;;;4920197;29;20028;-69
2023/10/28 10:05:44;;;;;;;9.00;4.60;;;19.70;69.00;;;;;;4921208;29;20035;-69
2023/10/28 10:08:19;;;;;;;11.52;6.20;;;19.70;67.60;;;;;;4921231;29;20059;-69
2023/10/28 10:11:12;;;;;;;9.50;5.13;;;19.70;67.40;;;;;;5188115;23;20063;-70
2023/10/28 10:13:46;;;;;;;10.48;6.43;;;19.60;68.50;;;;;;4940684;29;20046;-70
2023/10/28 10:16:33;;;;;;;7.97;4.80;;;19.60;67.70;;;;;;4939478;29;20044;-70
2023/10/28 10:19:07;;;;;;;9.30;5.55;;;19.60;68.10;;;;;;4939013;29;20401;-70
2023/10/28 10:21:33;;;;;;;12.43;5.70;;;19.60;68.10;;;;;;4926418;29;20028;-70
2023/10/28 10:24:06;;;;;;;8.98;5.18;;;19.60;67.90;;;;;;4920880;29;20110;-70
2023/10/28 10:26:34;;;;;;;8.82;5.50;;;19.60;68.90;;;;;;4920838;29;20036;-70
2023/10/28 10:29:05;;;;;;;10.65;5.75;;;19.70;68.70;;;;;;4920804;29;20020;-70
2023/10/28 10:31:33;;;;;;;12.23;6.22;;;19.70;68.90;;;;;;4919991;29;20060;-70
2023/10/28 10:34:01;;;;;;;11.40;6.30;;;19.80;68.40;;;;;;4919790;29;20035;-70
2023/10/28 10:36:35;;;;;;;13.18;6.75;;;19.70;65.80;;;;;;4920611;29;20080;-70
2023/10/28 10:39:16;;;;;;;11.18;6.65;;;19.80;67.00;;;;;;4920907;29;20453;-70
2023/10/28 10:41:46;;;;;;;10.25;5.50;;;19.70;66.70;;;;;;4920669;29;20442;-70
2023/10/28 10:44:23;;;;;;;9.20;5.28;;;19.80;67.50;;;;;;4920480;29;20457;-70
2023/10/28 10:46:49;;;;;;;10.32;5.75;;;19.90;67.90;;;;;;4920477;29;20028;-70
2023/10/28 10:49:16;;;;;;;8.57;5.40;;;19.90;68.00;;;;;;4920915;29;20032;-70
2023/10/28 10:51:44;;;;;;;10.07;5.78;;;19.90;67.90;;;;;;4919884;29;20450;-70
2023/10/28 10:54:11;;;;;;;9.45;5.57;;;20.00;67.60;;;;;;4920197;29;20067;-70
2023/10/28 10:56:37;;;;;;;10.00;5.40;;;20.00;66.30;;;;;;4920055;29;20024;-70
2023/10/28 10:59:04;;;;;;;11.63;5.43;;;20.00;67.10;;;;;;4920057;29;20357;-70
2023/10/28 11:03:57;;;;;;;9.05;5.07;;;20.10;66.80;;;;;;4920616;29;20346;-70
2023/10/28 11:06:28;;;;;;;11.82;5.45;;;20.10;67.20;;;;;;4920107;29;20028;-70
2023/10/28 11:08:57;;;;;;;7.72;4.75;;;20.10;66.40;;;;;;4920074;29;20032;-70
2023/10/28 11:11:27;;;;;;;10.05;4.65;;;20.10;65.70;;;;;;4919609;29;20071;-70
2023/10/28 11:13:53;;;;;;;11.95;4.88;;;20.20;66.10;;;;;;4919892;29;20035;-70
2023/10/28 11:16:27;;;;;;;9.95;4.45;;;20.20;64.90;;;;;;4919941;29;20342;-70
2023/10/28 11:18:53;;;;;;;8.40;4.63;;;20.30;64.90;;;;;;4919599;29;20385;-70
2023/10/28 11:21:26;;;;;;;10.13;5.10;;;20.30;64.40;;;;;;4918808;29;20458;-70
2023/10/28 11:23:57;;;;;;;12.68;4.53;;;20.30;64.90;;;;;;4920138;29;20558;-70
2023/10/28 11:26:24;;;;;;;11.40;5.05;;;20.40;65.10;;;;;;4920285;29;20025;-70
2023/10/28 11:28:50;;;;;;;8.18;4.65;;;20.40;65.30;;;;;;4919733;29;20039;-70
2023/10/28 11:31:20;;;;;;;11.25;4.63;;;20.40;65.40;;;;;;4919550;29;20064;-70
2023/10/28 11:33:55;;;;;;;9.85;4.28;;;20.50;65.00;;;;;;4919065;29;20028;-70
2023/10/28 11:36:22;;;;;;;18.55;5.78;;;20.50;64.40;;;;;;4920179;29;20043;-70
2023/10/28 11:38:51;;;;;;;10.15;5.18;;;20.50;62.00;;;;;;4919548;29;20326;-70
2023/10/28 11:41:20;;;;;;;10.82;4.80;;;20.50;62.80;;;;;;4919506;29;20031;-70
2023/10/28 11:43:49;;;;;;;9.43;4.90;;;20.50;63.70;;;;;;4919823;29;20083;-70
2023/10/28 11:46:21;;;;;;;11.65;4.93;;;20.50;63.30;;;;;;4918827;29;20425;-70
2023/10/28 11:48:47;;;;;;;10.23;5.03;;;20.50;64.00;;;;;;4920003;29;20080;-70
2023/10/28 11:51:14;;;;;;;9.25;4.60;;;20.50;63.80;;;;;;4919216;29;20028;-70
2023/10/28 11:53:50;;;;;;;8.77;4.57;;;20.50;64.30;;;;;;4919652;29;20462;-70
2023/10/28 11:56:19;;;;;;;7.28;3.55;;;20.50;64.30;;;;;;4919699;29;20028;-70
2023/10/28 11:58:46;;;;;;;11.73;4.50;;;20.60;64.60;;;;;;4918722;29;20107;-70
2023/10/28 12:01:14;;;;;;;8.95;4.30;;;20.60;63.60;;;;;;4919435;29;20087;-70
2023/10/28 12:03:40;;;;;;;8.82;4.13;;;20.60;63.10;;;;;;4919132;29;20024;-70
2023/10/28 12:06:06;;;;;;;8.50;3.70;;;20.70;63.60;;;;;;4919280;29;20075;-70
2023/10/28 12:08:31;;;;;;;8.52;4.30;;;20.80;63.20;;;;;;4919218;29;20075;-70
2023/10/28 12:10:58;;;;;;;8.38;3.85;;;20.80;63.40;;;;;;4919246;29;20381;-70
2023/10/28 12:13:25;;;;;;;9.18;3.75;;;20.90;63.40;;;;;;4918502;29;20039;-70
2023/10/28 12:15:51;;;;;;;10.18;4.05;;;20.90;63.50;;;;;;4919180;29;20024;-70
2023/10/28 12:18:17;;;;;;;11.05;5.10;;;21.00;63.30;;;;;;4919167;29;20464;-70
2023/10/28 12:20:44;;;;;;;10.23;4.63;;;21.00;62.60;;;;;;4919299;29;20055;-70
2023/10/28 12:23:13;;;;;;;10.63;4.68;;;21.00;62.40;;;;;;4919263;29;20047;-70
2023/10/28 12:25:39;;;;;;;10.23;4.28;;;21.00;62.80;;;;;;4918092;29;20029;-70
2023/10/28 12:28:05;;;;;;;10.98;4.10;;;21.00;62.80;;;;;;4918990;29;20093;-70
2023/10/28 12:30:34;;;;;;;8.93;4.25;;;21.00;62.90;;;;;;4919428;29;20048;-70
2023/10/28 12:33:00;;;;;;;12.10;4.40;;;21.00;63.00;;;;;;4918915;29;20032;-69
2023/10/28 12:35:27;;;;;;;11.80;4.50;;;21.00;62.80;;;;;;4918817;29;20385;-70
2023/10/28 12:37:53;;;;;;;11.38;4.55;;;21.10;62.50;;;;;;4918593;29;20442;-70
2023/10/28 12:40:19;;;;;;;10.00;4.50;;;21.10;62.30;;;;;;4918735;29;20040;-70
2023/10/28 12:42:45;;;;;;;9.27;3.88;;;21.10;62.50;;;;;;4918844;29;20406;-69
2023/10/28 12:45:14;;;;;;;9.05;4.43;;;21.20;62.80;;;;;;4919097;29;20099;-71
2023/10/28 12:47:40;;;;;;;12.07;4.65;;;21.20;62.30;;;;;;4918823;29;20047;-71
2023/10/28 12:50:14;;;;;;;8.43;4.28;;;21.10;61.00;;;;;;4918704;29;20365;-69